Startpagina
METAR-TAF:

METAR-TAF

Vliegvelden :

Productieplatform

P11-b, Nederland

breedte: 52-21-36N, lengte: 3-20-30E, hoogte: 24 m

Actueel weer

Dit bericht is 11 minuten geleden gemaakt, om 15:25 UTC
Wind 4 kt uit het westnoordwesten, variërend tussen het zuidwesten en het noorden
Temperatuur 8°C
Vochtigheid 57%
Druk 1024 hPa
Zicht 10 km of meer
Geheel bewolkt op 3600 ft

METAR: EHPG 111525Z AUTO 30004KT 220V360 9999 OVC036 08/M00 Q1024 W///H///

Tijdstip: 16:36 (15:36 UTC)


TAF: ontbreekt

Waarnemingen en weersverwachtingen van meer dan 4000 vliegvelden (METAR en TAF).

De beschikbare stations zijn de gele en rode punten op de kaart.

Ga met uw muis naar het station om de naam te zien.

Klik dan om waarnemingen en weersverwachtingen te zien.

kaart wijzigen: klik op de groene knoppen met een zwart kruis om in te zoomen, op de groene knop met een streepje om uit te zoomen of op de groene pijlen voor aangrenzende kaarten.


METAR-TAF: